sensor_id;sensor_type;location;lat;lon;timestamp;pressure;altitude;pressure_sealevel;temperature;humidity
43488;BME280;29078;41.932;25.554;2024-02-21T00:00:02;100312.00;;;8.60;67.79
43488;BME280;29078;41.932;25.554;2024-02-21T00:02:28;100322.81;;;8.57;67.22
43488;BME280;29078;41.932;25.554;2024-02-21T00:04:53;100321.31;;;8.54;66.83
43488;BME280;29078;41.932;25.554;2024-02-21T00:07:18;100317.59;;;8.47;66.79
43488;BME280;29078;41.932;25.554;2024-02-21T00:09:44;100317.66;;;8.38;67.15
43488;BME280;29078;41.932;25.554;2024-02-21T00:12:09;100318.63;;;8.37;67.52
43488;BME280;29078;41.932;25.554;2024-02-21T00:14:34;100328.16;;;8.38;67.44
43488;BME280;29078;41.932;25.554;2024-02-21T00:16:59;100328.47;;;8.35;66.89
43488;BME280;29078;41.932;25.554;2024-02-21T00:19:25;100327.88;;;8.31;66.92
43488;BME280;29078;41.932;25.554;2024-02-21T00:21:50;100333.59;;;8.26;67.56
43488;BME280;29078;41.932;25.554;2024-02-21T00:24:15;100332.75;;;8.26;67.59
43488;BME280;29078;41.932;25.554;2024-02-21T00:26:41;100324.03;;;8.25;67.53
43488;BME280;29078;41.932;25.554;2024-02-21T00:29:06;100324.84;;;8.26;67.34
43488;BME280;29078;41.932;25.554;2024-02-21T00:31:31;100331.63;;;8.28;67.29
43488;BME280;29078;41.932;25.554;2024-02-21T00:33:57;100328.84;;;8.30;66.82
43488;BME280;29078;41.932;25.554;2024-02-21T00:36:23;100326.38;;;8.28;67.67
43488;BME280;29078;41.932;25.554;2024-02-21T00:38:48;100326.38;;;8.28;67.40
43488;BME280;29078;41.932;25.554;2024-02-21T00:41:13;100332.31;;;8.31;66.56
43488;BME280;29078;41.932;25.554;2024-02-21T00:43:38;100330.66;;;8.29;66.87
43488;BME280;29078;41.932;25.554;2024-02-21T00:46:05;100331.50;;;8.30;66.87
43488;BME280;29078;41.932;25.554;2024-02-21T00:48:30;100320.97;;;8.30;66.71
43488;BME280;29078;41.932;25.554;2024-02-21T00:50:55;100329.28;;;8.25;67.19
43488;BME280;29078;41.932;25.554;2024-02-21T00:53:21;100331.25;;;8.14;67.70
43488;BME280;29078;41.932;25.554;2024-02-21T00:55:46;100324.59;;;8.10;68.36
43488;BME280;29078;41.932;25.554;2024-02-21T00:58:11;100319.19;;;8.11;68.19
43488;BME280;29078;41.932;25.554;2024-02-21T01:00:36;100315.88;;;8.09;67.99
43488;BME280;29078;41.932;25.554;2024-02-21T01:03:02;100311.59;;;8.08;68.08
43488;BME280;29078;41.932;25.554;2024-02-21T01:05:27;100317.13;;;8.15;67.11
43488;BME280;29078;41.932;25.554;2024-02-21T01:07:54;100313.09;;;8.20;67.28
43488;BME280;29078;41.932;25.554;2024-02-21T01:10:19;100305.63;;;8.25;67.79
43488;BME280;29078;41.932;25.554;2024-02-21T01:12:44;100306.59;;;8.24;68.06
43488;BME280;29078;41.932;25.554;2024-02-21T01:15:10;100307.41;;;8.25;67.41
43488;BME280;29078;41.932;25.554;2024-02-21T01:17:36;100315.16;;;8.26;67.40
43488;BME280;29078;41.932;25.554;2024-02-21T01:20:02;100317.78;;;8.26;67.34
43488;BME280;29078;41.932;25.554;2024-02-21T01:22:27;100315.16;;;8.26;67.20
43488;BME280;29078;41.932;25.554;2024-02-21T01:24:53;100310.44;;;8.30;67.46
43488;BME280;29078;41.932;25.554;2024-02-21T01:27:18;100312.09;;;8.31;67.10
43488;BME280;29078;41.932;25.554;2024-02-21T01:29:44;100305.31;;;8.28;67.37
43488;BME280;29078;41.932;25.554;2024-02-21T01:32:11;100311.28;;;8.31;67.16
43488;BME280;29078;41.932;25.554;2024-02-21T01:34:36;100303.22;;;8.32;67.10
43488;BME280;29078;41.932;25.554;2024-02-21T01:37:02;100303.13;;;8.34;67.44
43488;BME280;29078;41.932;25.554;2024-02-21T01:39:29;100289.13;;;8.33;67.68
43488;BME280;29078;41.932;25.554;2024-02-21T01:41:54;100297.44;;;8.28;68.26
43488;BME280;29078;41.932;25.554;2024-02-21T01:44:20;100294.13;;;8.26;67.39
43488;BME280;29078;41.932;25.554;2024-02-21T01:46:45;100295.63;;;8.29;67.20
43488;BME280;29078;41.932;25.554;2024-02-21T01:49:10;100286.34;;;8.35;67.20
43488;BME280;29078;41.932;25.554;2024-02-21T01:51:36;100288.00;;;8.36;67.41
43488;BME280;29078;41.932;25.554;2024-02-21T01:54:01;100280.81;;;8.38;67.04
43488;BME280;29078;41.932;25.554;2024-02-21T01:56:27;100288.41;;;8.41;67.17
43488;BME280;29078;41.932;25.554;2024-02-21T01:58:52;100288.00;;;8.36;67.92
43488;BME280;29078;41.932;25.554;2024-02-21T02:01:18;100289.69;;;8.37;67.82
43488;BME280;29078;41.932;25.554;2024-02-21T02:03:45;100297.72;;;8.35;68.26
43488;BME280;29078;41.932;25.554;2024-02-21T02:06:10;100288.84;;;8.36;68.32
43488;BME280;29078;41.932;25.554;2024-02-21T02:08:35;100284.41;;;8.37;68.57
43488;BME280;29078;41.932;25.554;2024-02-21T02:11:01;100287.19;;;8.35;67.75
43488;BME280;29078;41.932;25.554;2024-02-21T02:13:27;100288.84;;;8.36;67.90
43488;BME280;29078;41.932;25.554;2024-02-21T02:15:52;100285.25;;;8.37;67.97
43488;BME280;29078;41.932;25.554;2024-02-21T02:18:18;100279.97;;;8.37;67.61
43488;BME280;29078;41.932;25.554;2024-02-21T02:20:43;100287.03;;;8.37;68.37
43488;BME280;29078;41.932;25.554;2024-02-21T02:23:10;100282.59;;;8.37;67.86
43488;BME280;29078;41.932;25.554;2024-02-21T02:25:35;100273.06;;;8.36;67.19
43488;BME280;29078;41.932;25.554;2024-02-21T02:28:01;100276.91;;;8.32;67.83
43488;BME280;29078;41.932;25.554;2024-02-21T02:30:26;100283.00;;;8.33;67.94
43488;BME280;29078;41.932;25.554;2024-02-21T02:32:52;100281.94;;;8.35;67.61
43488;BME280;29078;41.932;25.554;2024-02-21T02:35:17;100281.94;;;8.35;68.27
43488;BME280;29078;41.932;25.554;2024-02-21T02:37:49;100287.34;;;8.34;67.82
43488;BME280;29078;41.932;25.554;2024-02-21T02:40:14;100291.19;;;8.29;67.34
43488;BME280;29078;41.932;25.554;2024-02-21T02:42:40;100287.06;;;8.27;67.48
43488;BME280;29078;41.932;25.554;2024-02-21T02:45:05;100290.94;;;8.23;67.90
43488;BME280;29078;41.932;25.554;2024-02-21T02:47:30;100289.28;;;8.22;67.70
43488;BME280;29078;41.932;25.554;2024-02-21T02:49:55;100287.78;;;8.19;67.86
43488;BME280;29078;41.932;25.554;2024-02-21T02:52:21;100280.03;;;8.18;67.75
43488;BME280;29078;41.932;25.554;2024-02-21T02:54:46;100280.97;;;8.17;67.44
43488;BME280;29078;41.932;25.554;2024-02-21T02:57:16;100273.38;;;8.14;68.05
43488;BME280;29078;41.932;25.554;2024-02-21T02:59:42;100265.91;;;8.09;68.10
43488;BME280;29078;41.932;25.554;2024-02-21T03:02:07;100273.81;;;8.09;67.84
43488;BME280;29078;41.932;25.554;2024-02-21T03:04:32;100267.13;;;8.15;67.57
43488;BME280;29078;41.932;25.554;2024-02-21T03:06:58;100276.53;;;8.17;68.13
43488;BME280;29078;41.932;25.554;2024-02-21T03:09:23;100279.75;;;8.21;67.46
43488;BME280;29078;41.932;25.554;2024-02-21T03:11:48;100276.28;;;8.20;68.06
43488;BME280;29078;41.932;25.554;2024-02-21T03:14:13;100281.81;;;8.17;67.80
43488;BME280;29078;41.932;25.554;2024-02-21T03:16:39;100283.91;;;8.14;67.70
43488;BME280;29078;41.932;25.554;2024-02-21T03:19:04;100280.28;;;8.15;67.64
43488;BME280;29078;41.932;25.554;2024-02-21T03:21:29;100282.91;;;8.15;68.12
43488;BME280;29078;41.932;25.554;2024-02-21T03:23:55;100288.63;;;8.10;67.78
43488;BME280;29078;41.932;25.554;2024-02-21T03:26:20;100285.97;;;8.10;67.76
43488;BME280;29078;41.932;25.554;2024-02-21T03:28:46;100293.88;;;8.10;67.63
43488;BME280;29078;41.932;25.554;2024-02-21T03:31:11;100284.19;;;8.11;68.29
43488;BME280;29078;41.932;25.554;2024-02-21T03:33:38;100282.38;;;8.11;67.86
43488;BME280;29078;41.932;25.554;2024-02-21T03:36:04;100278.50;;;8.15;67.45
43488;BME280;29078;41.932;25.554;2024-02-21T03:38:29;100275.84;;;8.15;68.23
43488;BME280;29078;41.932;25.554;2024-02-21T03:40:54;100277.25;;;8.10;68.84
43488;BME280;29078;41.932;25.554;2024-02-21T03:43:19;100275.75;;;8.07;69.21
43488;BME280;29078;41.932;25.554;2024-02-21T03:45:45;100280.31;;;8.05;68.70
43488;BME280;29078;41.932;25.554;2024-02-21T03:48:10;100293.34;;;8.07;67.97
43488;BME280;29078;41.932;25.554;2024-02-21T03:50:35;100291.09;;;8.12;67.57
43488;BME280;29078;41.932;25.554;2024-02-21T03:53:00;100294.69;;;8.11;68.37
43488;BME280;29078;41.932;25.554;2024-02-21T03:55:26;100286.13;;;8.09;68.49
43488;BME280;29078;41.932;25.554;2024-02-21T03:57:51;100289.44;;;8.11;68.27
43488;BME280;29078;41.932;25.554;2024-02-21T04:00:16;100297.47;;;8.09;68.76
43488;BME280;29078;41.932;25.554;2024-02-21T04:02:42;100291.53;;;8.07;68.64
43488;BME280;29078;41.932;25.554;2024-02-21T04:05:07;100294.00;;;8.09;68.53
43488;BME280;29078;41.932;25.554;2024-02-21T04:07:36;100284.31;;;8.09;68.25
43488;BME280;29078;41.932;25.554;2024-02-21T04:10:01;100292.22;;;8.09;68.48
43488;BME280;29078;41.932;25.554;2024-02-21T04:12:26;100294.16;;;8.07;68.24
43488;BME280;29078;41.932;25.554;2024-02-21T04:14:52;100293.03;;;8.10;67.29
43488;BME280;29078;41.932;25.554;2024-02-21T04:17:17;100290.41;;;8.10;68.09
43488;BME280;29078;41.932;25.554;2024-02-21T04:19:42;100295.97;;;8.07;68.80
43488;BME280;29078;41.932;25.554;2024-02-21T04:22:07;100304.13;;;8.04;69.53
43488;BME280;29078;41.932;25.554;2024-02-21T04:24:33;100301.66;;;8.02;68.42
43488;BME280;29078;41.932;25.554;2024-02-21T04:26:58;100306.78;;;8.04;68.57
43488;BME280;29078;41.932;25.554;2024-02-21T04:29:23;100305.09;;;8.03;67.43
43488;BME280;29078;41.932;25.554;2024-02-21T04:31:49;100307.19;;;7.99;68.51
43488;BME280;29078;41.932;25.554;2024-02-21T04:34:14;100306.38;;;7.98;68.79
43488;BME280;29078;41.932;25.554;2024-02-21T04:36:39;100309.00;;;7.98;69.02
43488;BME280;29078;41.932;25.554;2024-02-21T04:39:04;100307.19;;;7.99;68.78
43488;BME280;29078;41.932;25.554;2024-02-21T04:41:30;100303.59;;;8.00;68.73
43488;BME280;29078;41.932;25.554;2024-02-21T04:43:55;100308.56;;;8.03;69.01
43488;BME280;29078;41.932;25.554;2024-02-21T04:46:20;100298.34;;;8.00;69.03
43488;BME280;29078;41.932;25.554;2024-02-21T04:48:45;100300.97;;;8.00;69.03
43488;BME280;29078;41.932;25.554;2024-02-21T04:51:11;100297.50;;;8.00;69.22
43488;BME280;29078;41.932;25.554;2024-02-21T04:53:36;100294.19;;;7.97;69.81
43488;BME280;29078;41.932;25.554;2024-02-21T04:56:02;100296.81;;;7.97;68.78
43488;BME280;29078;41.932;25.554;2024-02-21T04:58:27;100299.44;;;7.97;68.29
43488;BME280;29078;41.932;25.554;2024-02-21T05:00:52;100301.78;;;8.01;69.15
43488;BME280;29078;41.932;25.554;2024-02-21T05:03:19;100302.47;;;8.03;68.93
43488;BME280;29078;41.932;25.554;2024-02-21T05:05:45;100307.75;;;8.03;69.14
43488;BME280;29078;41.932;25.554;2024-02-21T05:08:10;100315.63;;;8.03;68.54
43488;BME280;29078;41.932;25.554;2024-02-21T05:10:35;100315.19;;;8.07;67.60
43488;BME280;29078;41.932;25.554;2024-02-21T05:13:01;100324.75;;;8.08;68.36
43488;BME280;29078;41.932;25.554;2024-02-21T05:15:26;100319.50;;;8.08;67.89
43488;BME280;29078;41.932;25.554;2024-02-21T05:17:52;100313.53;;;8.06;68.04
43488;BME280;29078;41.932;25.554;2024-02-21T05:20:17;100323.91;;;8.08;67.75
43488;BME280;29078;41.932;25.554;2024-02-21T05:22:42;100328.50;;;8.06;67.71
43488;BME280;29078;41.932;25.554;2024-02-21T05:25:08;100331.94;;;8.06;67.97
43488;BME280;29078;41.932;25.554;2024-02-21T05:27:33;100340.66;;;8.07;67.99
43488;BME280;29078;41.932;25.554;2024-02-21T05:29:59;100336.53;;;8.04;67.79
43488;BME280;29078;41.932;25.554;2024-02-21T05:32:25;100332.94;;;7.95;67.70
43488;BME280;29078;41.932;25.554;2024-02-21T05:34:51;100340.28;;;7.92;68.26
43488;BME280;29078;41.932;25.554;2024-02-21T05:37:16;100338.34;;;7.94;68.32
43488;BME280;29078;41.932;25.554;2024-02-21T05:39:41;100338.34;;;7.94;67.65
43488;BME280;29078;41.932;25.554;2024-02-21T05:42:07;100340.00;;;7.95;67.92
43488;BME280;29078;41.932;25.554;2024-02-21T05:44:32;100346.78;;;7.97;67.68
43488;BME280;29078;41.932;25.554;2024-02-21T05:46:57;100346.34;;;8.02;67.71
43488;BME280;29078;41.932;25.554;2024-02-21T05:49:22;100348.00;;;8.03;68.03
43488;BME280;29078;41.932;25.554;2024-02-21T05:51:48;100351.47;;;8.04;68.20
43488;BME280;29078;41.932;25.554;2024-02-21T05:54:13;100356.72;;;8.04;68.69
43488;BME280;29078;41.932;25.554;2024-02-21T05:56:39;100357.56;;;8.04;67.96
43488;BME280;29078;41.932;25.554;2024-02-21T05:59:04;100352.72;;;8.09;66.89
43488;BME280;29078;41.932;25.554;2024-02-21T06:01:29;100358.09;;;8.17;66.40
43488;BME280;29078;41.932;25.554;2024-02-21T06:03:54;100355.16;;;8.30;67.59
43488;BME280;29078;41.932;25.554;2024-02-21T06:06:20;100356.56;;;8.34;67.42
43488;BME280;29078;41.932;25.554;2024-02-21T06:08:46;100356.69;;;8.42;66.66
43488;BME280;29078;41.932;25.554;2024-02-21T06:11:12;100360.81;;;8.45;67.27
43488;BME280;29078;41.932;25.554;2024-02-21T06:13:40;100365.94;;;8.46;67.27
43488;BME280;29078;41.932;25.554;2024-02-21T06:16:06;100364.56;;;8.42;67.78
43488;BME280;29078;41.932;25.554;2024-02-21T06:18:31;100289.34;;;7.93;68.01
43488;BME280;29078;41.932;25.554;2024-02-21T06:20:57;100367.63;;;8.38;68.00
43488;BME280;29078;41.932;25.554;2024-02-21T06:23:22;100368.88;;;8.43;67.66
43488;BME280;29078;41.932;25.554;2024-02-21T06:25:47;100368.56;;;8.46;66.90
43488;BME280;29078;41.932;25.554;2024-02-21T06:28:13;100368.03;;;8.43;66.47
43488;BME280;29078;41.932;25.554;2024-02-21T06:30:39;100374.41;;;8.40;67.31
43488;BME280;29078;41.932;25.554;2024-02-21T06:33:04;100372.63;;;8.41;66.33
43488;BME280;29078;41.932;25.554;2024-02-21T06:35:30;100368.75;;;8.35;66.63
43488;BME280;29078;41.932;25.554;2024-02-21T06:37:55;100383.97;;;8.32;67.10
43488;BME280;29078;41.932;25.554;2024-02-21T06:40:21;100378.00;;;8.29;67.01
43488;BME280;29078;41.932;25.554;2024-02-21T06:42:46;100381.91;;;8.25;67.18
43488;BME280;29078;41.932;25.554;2024-02-21T06:45:11;100386.19;;;8.26;67.67
43488;BME280;29078;41.932;25.554;2024-02-21T06:47:37;100380.50;;;8.31;67.37
43488;BME280;29078;41.932;25.554;2024-02-21T06:50:02;100381.09;;;8.35;67.67
43488;BME280;29078;41.932;25.554;2024-02-21T06:52:27;100381.22;;;8.33;67.95
43488;BME280;29078;41.932;25.554;2024-02-21T06:54:53;100386.88;;;8.38;66.42
43488;BME280;29078;41.932;25.554;2024-02-21T06:57:18;100383.56;;;8.36;66.94
43488;BME280;29078;41.932;25.554;2024-02-21T06:59:43;100385.78;;;8.41;67.61
43488;BME280;29078;41.932;25.554;2024-02-21T07:02:09;100390.47;;;8.47;67.67
43488;BME280;29078;41.932;25.554;2024-02-21T07:04:34;100382.81;;;8.53;67.65
43488;BME280;29078;41.932;25.554;2024-02-21T07:06:59;100384.34;;;8.56;67.34
43488;BME280;29078;41.932;25.554;2024-02-21T07:09:24;100386.81;;;8.57;67.37
43488;BME280;29078;41.932;25.554;2024-02-21T07:11:50;100384.88;;;8.59;67.59
43488;BME280;29078;41.932;25.554;2024-02-21T07:14:15;100385.41;;;8.63;67.35
43488;BME280;29078;41.932;25.554;2024-02-21T07:16:40;100381.81;;;8.64;67.24
43488;BME280;29078;41.932;25.554;2024-02-21T07:19:06;100384.69;;;8.71;66.75
43488;BME280;29078;41.932;25.554;2024-02-21T07:21:31;100392.28;;;8.74;66.70
43488;BME280;29078;41.932;25.554;2024-02-21T07:23:56;100386.59;;;8.78;66.73
43488;BME280;29078;41.932;25.554;2024-02-21T07:26:21;100377.84;;;8.78;66.98
43488;BME280;29078;41.932;25.554;2024-02-21T07:28:47;100386.59;;;8.78;67.54
43488;BME280;29078;41.932;25.554;2024-02-21T07:31:12;100388.94;;;8.81;67.02
43488;BME280;29078;41.932;25.554;2024-02-21T07:33:37;100385.47;;;8.81;66.79
43488;BME280;29078;41.932;25.554;2024-02-21T07:36:06;100389.31;;;8.86;66.77
43488;BME280;29078;41.932;25.554;2024-02-21T07:38:32;100392.91;;;8.95;66.66
43488;BME280;29078;41.932;25.554;2024-02-21T07:40:57;100389.41;;;9.04;66.71
43488;BME280;29078;41.932;25.554;2024-02-21T07:43:23;100393.94;;;9.12;66.01
43488;BME280;29078;41.932;25.554;2024-02-21T07:45:48;100398.75;;;9.16;65.80
43488;BME280;29078;41.932;25.554;2024-02-21T07:48:13;100387.75;;;9.21;65.20
43488;BME280;29078;41.932;25.554;2024-02-21T07:50:38;100395.75;;;9.29;65.64
43488;BME280;29078;41.932;25.554;2024-02-21T07:53:04;100385.97;;;9.39;64.90
43488;BME280;29078;41.932;25.554;2024-02-21T07:55:29;100387.25;;;9.35;64.84
43488;BME280;29078;41.932;25.554;2024-02-21T07:57:54;100393.50;;;9.34;64.55
43488;BME280;29078;41.932;25.554;2024-02-21T08:00:20;100391.69;;;9.35;65.17
43488;BME280;29078;41.932;25.554;2024-02-21T08:02:47;100388.75;;;9.38;65.22
43488;BME280;29078;41.932;25.554;2024-02-21T08:05:12;100390.13;;;9.42;65.50
43488;BME280;29078;41.932;25.554;2024-02-21T08:07:38;100381.75;;;9.46;65.02
43488;BME280;29078;41.932;25.554;2024-02-21T08:10:03;100392.69;;;9.51;65.06
43488;BME280;29078;41.932;25.554;2024-02-21T08:12:29;100398.34;;;9.56;65.27
43488;BME280;29078;41.932;25.554;2024-02-21T08:14:54;100391.47;;;9.64;64.54
43488;BME280;29078;41.932;25.554;2024-02-21T08:17:19;100395.34;;;9.69;64.68
43488;BME280;29078;41.932;25.554;2024-02-21T08:19:45;100396.19;;;9.70;64.69
43488;BME280;29078;41.932;25.554;2024-02-21T08:22:10;100398.34;;;9.74;64.55
43488;BME280;29078;41.932;25.554;2024-02-21T08:24:35;100392.78;;;9.77;64.48
43488;BME280;29078;41.932;25.554;2024-02-21T08:27:01;100393.66;;;9.86;64.03
43488;BME280;29078;41.932;25.554;2024-02-21T08:29:26;100393.53;;;9.87;64.00
43488;BME280;29078;41.932;25.554;2024-02-21T08:31:52;100397.81;;;9.88;64.12
43488;BME280;29078;41.932;25.554;2024-02-21T08:34:18;100398.50;;;9.91;64.01
43488;BME280;29078;41.932;25.554;2024-02-21T08:36:43;100397.66;;;9.90;63.93
43488;BME280;29078;41.932;25.554;2024-02-21T08:39:08;100405.44;;;9.92;63.71
43488;BME280;29078;41.932;25.554;2024-02-21T08:41:34;100406.25;;;9.92;63.69
43488;BME280;29078;41.932;25.554;2024-02-21T08:44:00;100409.09;;;9.99;63.88
43488;BME280;29078;41.932;25.554;2024-02-21T08:46:25;100405.25;;;10.11;64.19
43488;BME280;29078;41.932;25.554;2024-02-21T08:48:51;100405.19;;;10.21;63.72
43488;BME280;29078;41.932;25.554;2024-02-21T08:51:16;100401.91;;;10.27;62.94
43488;BME280;29078;41.932;25.554;2024-02-21T08:53:43;100405.91;;;10.31;63.35
43488;BME280;29078;41.932;25.554;2024-02-21T08:56:08;100407.75;;;10.38;63.10
43488;BME280;29078;41.932;25.554;2024-02-21T08:58:34;100401.06;;;10.44;62.48
43488;BME280;29078;41.932;25.554;2024-02-21T09:01:00;100400.13;;;10.53;62.30
43488;BME280;29078;41.932;25.554;2024-02-21T09:03:26;100408.09;;;10.61;62.20
43488;BME280;29078;41.932;25.554;2024-02-21T09:05:51;100406.78;;;10.65;61.30
43488;BME280;29078;41.932;25.554;2024-02-21T09:08:16;100402.38;;;10.74;61.82
43488;BME280;29078;41.932;25.554;2024-02-21T09:10:42;100407.34;;;10.77;61.91
43488;BME280;29078;41.932;25.554;2024-02-21T09:13:07;100399.78;;;10.82;60.89
43488;BME280;29078;41.932;25.554;2024-02-21T09:15:33;100401.63;;;10.90;60.71
43488;BME280;29078;41.932;25.554;2024-02-21T09:17:59;100400.16;;;10.95;61.11
43488;BME280;29078;41.932;25.554;2024-02-21T09:20:24;100397.00;;;10.92;60.55
43488;BME280;29078;41.932;25.554;2024-02-21T09:22:49;100387.59;;;10.97;59.80
43488;BME280;29078;41.932;25.554;2024-02-21T09:25:15;100392.75;;;11.07;59.21
43488;BME280;29078;41.932;25.554;2024-02-21T09:27:40;100389.84;;;11.18;60.44
43488;BME280;29078;41.932;25.554;2024-02-21T09:30:06;100397.63;;;11.28;59.68
43488;BME280;29078;41.932;25.554;2024-02-21T09:32:32;100390.53;;;11.28;59.66
43488;BME280;29078;41.932;25.554;2024-02-21T09:35:01;100395.19;;;11.34;58.45
43488;BME280;29078;41.932;25.554;2024-02-21T09:37:26;100391.88;;;11.40;57.51
43488;BME280;29078;41.932;25.554;2024-02-21T09:39:51;100392.91;;;11.56;58.00
43488;BME280;29078;41.932;25.554;2024-02-21T09:42:20;100397.69;;;11.68;58.19
43488;BME280;29078;41.932;25.554;2024-02-21T09:44:49;100390.09;;;11.73;56.33
43488;BME280;29078;41.932;25.554;2024-02-21T09:47:17;100390.97;;;11.82;57.18
43488;BME280;29078;41.932;25.554;2024-02-21T09:49:44;100386.34;;;11.92;57.35
43488;BME280;29078;41.932;25.554;2024-02-21T09:52:10;100393.63;;;12.06;57.31
43488;BME280;29078;41.932;25.554;2024-02-21T09:54:36;100380.19;;;12.24;56.62
43488;BME280;29078;41.932;25.554;2024-02-21T09:57:03;100376.34;;;12.43;55.94
43488;BME280;29078;41.932;25.554;2024-02-21T09:59:28;100376.31;;;12.59;56.05
43488;BME280;29078;41.932;25.554;2024-02-21T10:01:55;100372.63;;;12.77;55.25
43488;BME280;29078;41.932;25.554;2024-02-21T10:04:20;100367.59;;;12.90;54.01
43488;BME280;29078;41.932;25.554;2024-02-21T10:06:46;100367.38;;;12.99;54.77
43488;BME280;29078;41.932;25.554;2024-02-21T10:09:24;100378.94;;;13.07;54.78
43488;BME280;29078;41.932;25.554;2024-02-21T10:11:52;100365.88;;;13.05;54.24
43488;BME280;29078;41.932;25.554;2024-02-21T10:14:17;100367.63;;;13.21;53.40
43488;BME280;29078;41.932;25.554;2024-02-21T10:16:43;100365.47;;;13.16;53.49
43488;BME280;29078;41.932;25.554;2024-02-21T10:19:18;100353.13;;;13.00;52.72
43488;BME280;29078;41.932;25.554;2024-02-21T10:21:44;100363.03;;;12.76;53.38
43488;BME280;29078;41.932;25.554;2024-02-21T10:24:10;100357.63;;;12.53;53.97
43488;BME280;29078;41.932;25.554;2024-02-21T10:26:37;100353.19;;;12.37;53.11
43488;BME280;29078;41.932;25.554;2024-02-21T10:29:02;100346.09;;;12.29;54.02
43488;BME280;29078;41.932;25.554;2024-02-21T10:31:28;100345.44;;;12.27;53.59
43488;BME280;29078;41.932;25.554;2024-02-21T10:33:56;100343.16;;;12.16;52.94
43488;BME280;29078;41.932;25.554;2024-02-21T10:36:22;100338.88;;;12.07;52.61
43488;BME280;29078;41.932;25.554;2024-02-21T10:38:47;100331.78;;;11.99;53.67
43488;BME280;29078;41.932;25.554;2024-02-21T10:41:14;100327.78;;;12.03;55.58
43488;BME280;29078;41.932;25.554;2024-02-21T10:43:39;100322.84;;;12.00;53.83
43488;BME280;29078;41.932;25.554;2024-02-21T10:46:07;100320.53;;;11.97;56.33
43488;BME280;29078;41.932;25.554;2024-02-21T10:48:46;100308.59;;;12.01;56.24
43488;BME280;29078;41.932;25.554;2024-02-21T10:51:19;100310.38;;;12.17;53.41
43488;BME280;29078;41.932;25.554;2024-02-21T10:56:29;100296.13;;;12.73;51.79
43488;BME280;29078;41.932;25.554;2024-02-21T10:58:56;100292.69;;;12.96;51.62
43488;BME280;29078;41.932;25.554;2024-02-21T11:01:22;100288.44;;;13.18;50.80
43488;BME280;29078;41.932;25.554;2024-02-21T11:03:48;100288.78;;;13.38;49.83
43488;BME280;29078;41.932;25.554;2024-02-21T11:06:14;100277.34;;;13.60;52.78
43488;BME280;29078;41.932;25.554;2024-02-21T11:08:40;100283.56;;;13.67;49.67
43488;BME280;29078;41.932;25.554;2024-02-21T11:11:05;100267.75;;;13.74;44.95
43488;BME280;29078;41.932;25.554;2024-02-21T11:13:31;100271.34;;;13.81;47.34
43488;BME280;29078;41.932;25.554;2024-02-21T11:16:10;100273.19;;;13.95;48.19
43488;BME280;29078;41.932;25.554;2024-02-21T11:18:36;100265.69;;;13.98;45.04
43488;BME280;29078;41.932;25.554;2024-02-21T11:21:01;100254.06;;;13.99;46.72
43488;BME280;29078;41.932;25.554;2024-02-21T11:23:29;100248.59;;;14.16;47.11
43488;BME280;29078;41.932;25.554;2024-02-21T11:26:07;100249.84;;;14.35;47.70
43488;BME280;29078;41.932;25.554;2024-02-21T11:28:33;100247.56;;;14.46;43.51
43488;BME280;29078;41.932;25.554;2024-02-21T11:31:11;100240.78;;;14.58;39.87
43488;BME280;29078;41.932;25.554;2024-02-21T11:33:42;100242.41;;;14.59;45.44
43488;BME280;29078;41.932;25.554;2024-02-21T11:36:08;100243.06;;;14.61;40.89
43488;BME280;29078;41.932;25.554;2024-02-21T11:38:33;100244.59;;;14.71;42.23
43488;BME280;29078;41.932;25.554;2024-02-21T11:40:58;100233.94;;;14.71;43.36
43488;BME280;29078;41.932;25.554;2024-02-21T11:43:24;100229.47;;;14.71;41.95
43488;BME280;29078;41.932;25.554;2024-02-21T11:45:49;100228.41;;;14.51;37.81
43488;BME280;29078;41.932;25.554;2024-02-21T11:48:14;100230.44;;;14.34;40.91
43488;BME280;29078;41.932;25.554;2024-02-21T11:50:40;100230.06;;;14.37;45.58
43488;BME280;29078;41.932;25.554;2024-02-21T11:53:05;100226.75;;;14.35;38.30
43488;BME280;29078;41.932;25.554;2024-02-21T11:55:30;100225.38;;;14.39;39.49
43488;BME280;29078;41.932;25.554;2024-02-21T11:57:56;100223.28;;;14.49;42.60
43488;BME280;29078;41.932;25.554;2024-02-21T12:00:21;100223.09;;;14.51;42.70
43488;BME280;29078;41.932;25.554;2024-02-21T12:02:47;100219.63;;;14.50;41.26
43488;BME280;29078;41.932;25.554;2024-02-21T12:05:12;100215.13;;;14.51;42.38
43488;BME280;29078;41.932;25.554;2024-02-21T12:07:38;100203.41;;;14.45;42.04
43488;BME280;29078;41.932;25.554;2024-02-21T12:10:09;100196.97;;;14.40;41.34
43488;BME280;29078;41.932;25.554;2024-02-21T12:12:35;100210.00;;;14.35;42.37
43488;BME280;29078;41.932;25.554;2024-02-21T12:15:03;100199.31;;;14.28;43.25
43488;BME280;29078;41.932;25.554;2024-02-21T12:17:29;100201.78;;;14.15;44.10
43488;BME280;29078;41.932;25.554;2024-02-21T12:19:54;100203.69;;;14.06;43.03
43488;BME280;29078;41.932;25.554;2024-02-21T12:22:19;100193.63;;;14.02;42.22
43488;BME280;29078;41.932;25.554;2024-02-21T12:24:45;100105.31;;;13.34;38.85
43488;BME280;29078;41.932;25.554;2024-02-21T12:27:12;100200.22;;;13.91;43.19
43488;BME280;29078;41.932;25.554;2024-02-21T12:29:38;100193.09;;;13.91;41.51
43488;BME280;29078;41.932;25.554;2024-02-21T12:32:03;100190.69;;;13.96;43.03
43488;BME280;29078;41.932;25.554;2024-02-21T12:34:29;100189.13;;;14.02;39.98
43488;BME280;29078;41.932;25.554;2024-02-21T12:36:56;100188.94;;;14.04;40.25
43488;BME280;29078;41.932;25.554;2024-02-21T12:39:22;100191.59;;;14.04;42.90
43488;BME280;29078;41.932;25.554;2024-02-21T12:41:47;100181.72;;;13.97;41.65